sensor_id;sensor_type;location;lat;lon;timestamp;pressure;altitude;pressure_sealevel;temperature;humidity
80976;BME280;70437;49.466;11.002;2023-11-19T00:01:44;98133.50;;;6.41;100.00
80976;BME280;70437;49.466;11.002;2023-11-19T00:04:17;98140.25;;;6.37;100.00
80976;BME280;70437;49.466;11.002;2023-11-19T00:06:47;98131.28;;;6.44;100.00
80976;BME280;70437;49.466;11.002;2023-11-19T00:09:21;98124.72;;;6.40;100.00
80976;BME280;70437;49.466;11.002;2023-11-19T00:11:50;98115.25;;;6.38;100.00
80976;BME280;70437;49.466;11.002;2023-11-19T00:14:22;98113.44;;;6.38;100.00
80976;BME280;70437;49.466;11.002;2023-11-19T00:16:53;98120.81;;;6.43;100.00
80976;BME280;70437;49.466;11.002;2023-11-19T00:19:25;98121.47;;;6.45;100.00
80976;BME280;70437;49.466;11.002;2023-11-19T00:21:54;98127.22;;;6.48;100.00
80976;BME280;70437;49.466;11.002;2023-11-19T00:24:25;98121.91;;;6.55;100.00
80976;BME280;70437;49.466;11.002;2023-11-19T00:26:56;98117.38;;;6.49;100.00
80976;BME280;70437;49.466;11.002;2023-11-19T00:29:27;98113.09;;;6.54;100.00
80976;BME280;70437;49.466;11.002;2023-11-19T00:31:57;98116.00;;;6.59;100.00
80976;BME280;70437;49.466;11.002;2023-11-19T00:34:28;98107.41;;;6.64;100.00
80976;BME280;70437;49.466;11.002;2023-11-19T00:37:01;98096.75;;;6.57;100.00
80976;BME280;70437;49.466;11.002;2023-11-19T00:39:31;98092.47;;;6.63;100.00
80976;BME280;70437;49.466;11.002;2023-11-19T00:42:02;98087.72;;;6.58;100.00
80976;BME280;70437;49.466;11.002;2023-11-19T00:44:31;98078.34;;;6.69;100.00
80976;BME280;70437;49.466;11.002;2023-11-19T00:47:02;98078.94;;;6.65;100.00
80976;BME280;70437;49.466;11.002;2023-11-19T00:49:34;98069.09;;;6.65;100.00
80976;BME280;70437;49.466;11.002;2023-11-19T00:52:05;98066.03;;;6.62;100.00
80976;BME280;70437;49.466;11.002;2023-11-19T00:54:37;98062.97;;;6.65;100.00
80976;BME280;70437;49.466;11.002;2023-11-19T00:57:07;98064.41;;;6.67;100.00
80976;BME280;70437;49.466;11.002;2023-11-19T00:59:36;98061.53;;;6.69;100.00
80976;BME280;70437;49.466;11.002;2023-11-19T01:02:08;98059.31;;;6.72;100.00
80976;BME280;70437;49.466;11.002;2023-11-19T01:04:40;98042.09;;;6.62;100.00
80976;BME280;70437;49.466;11.002;2023-11-19T01:07:10;98047.63;;;6.73;100.00
80976;BME280;70437;49.466;11.002;2023-11-19T01:09:41;98049.91;;;6.70;100.00
80976;BME280;70437;49.466;11.002;2023-11-19T01:12:11;98063.00;;;6.71;100.00
80976;BME280;70437;49.466;11.002;2023-11-19T01:14:40;98073.25;;;6.81;100.00
80976;BME280;70437;49.466;11.002;2023-11-19T01:17:09;98068.16;;;6.79;100.00
80976;BME280;70437;49.466;11.002;2023-11-19T01:19:40;98075.72;;;6.82;100.00
80976;BME280;70437;49.466;11.002;2023-11-19T01:22:13;98066.06;;;6.68;100.00
80976;BME280;70437;49.466;11.002;2023-11-19T01:24:43;98065.88;;;6.76;100.00
80976;BME280;70437;49.466;11.002;2023-11-19T01:27:12;98055.66;;;6.80;100.00
80976;BME280;70437;49.466;11.002;2023-11-19T01:29:42;98059.13;;;6.80;100.00
80976;BME280;70437;49.466;11.002;2023-11-19T01:32:12;98055.66;;;6.80;100.00
80976;BME280;70437;49.466;11.002;2023-11-19T01:34:43;98052.78;;;6.81;100.00
80976;BME280;70437;49.466;11.002;2023-11-19T01:37:18;98055.03;;;6.84;100.00
80976;BME280;70437;49.466;11.002;2023-11-19T01:39:47;98055.03;;;6.84;100.00
80976;BME280;70437;49.466;11.002;2023-11-19T01:42:20;98038.84;;;6.86;100.00
80976;BME280;70437;49.466;11.002;2023-11-19T01:44:57;98035.78;;;6.82;100.00
80976;BME280;70437;49.466;11.002;2023-11-19T01:47:28;98036.41;;;6.84;100.00
80976;BME280;70437;49.466;11.002;2023-11-19T01:50:06;98017.75;;;6.84;100.00
80976;BME280;70437;49.466;11.002;2023-11-19T01:52:37;98009.97;;;6.83;100.00
80976;BME280;70437;49.466;11.002;2023-11-19T01:55:10;97997.09;;;6.93;100.00
80976;BME280;70437;49.466;11.002;2023-11-19T01:57:41;97981.09;;;6.87;100.00
80976;BME280;70437;49.466;11.002;2023-11-19T02:00:12;97976.59;;;6.94;100.00
80976;BME280;70437;49.466;11.002;2023-11-19T02:02:44;97971.25;;;6.80;100.00
80976;BME280;70437;49.466;11.002;2023-11-19T02:05:16;97977.41;;;6.94;100.00
80976;BME280;70437;49.466;11.002;2023-11-19T02:07:47;97981.91;;;7.00;100.00
80976;BME280;70437;49.466;11.002;2023-11-19T02:10:18;97977.41;;;7.07;100.00
80976;BME280;70437;49.466;11.002;2023-11-19T02:12:49;97975.56;;;7.08;100.00
80976;BME280;70437;49.466;11.002;2023-11-19T02:15:19;97980.69;;;7.09;100.00
80976;BME280;70437;49.466;11.002;2023-11-19T02:17:52;97982.13;;;7.12;100.00
80976;BME280;70437;49.466;11.002;2023-11-19T02:20:27;97990.97;;;7.19;100.00
80976;BME280;70437;49.466;11.002;2023-11-19T02:22:56;97983.97;;;7.12;100.00
80976;BME280;70437;49.466;11.002;2023-11-19T02:25:32;97986.22;;;7.08;100.00
80976;BME280;70437;49.466;11.002;2023-11-19T02:28:04;97982.13;;;7.12;100.00
80976;BME280;70437;49.466;11.002;2023-11-19T02:30:34;97975.97;;;7.05;100.00
80976;BME280;70437;49.466;11.002;2023-11-19T02:33:04;97977.63;;;7.13;100.00
80976;BME280;70437;49.466;11.002;2023-11-19T02:35:37;97969.41;;;7.14;100.00
80976;BME280;70437;49.466;11.002;2023-11-19T02:38:06;97971.88;;;7.02;100.00
80976;BME280;70437;49.466;11.002;2023-11-19T02:40:38;97966.16;;;7.12;100.00
80976;BME280;70437;49.466;11.002;2023-11-19T02:43:08;97976.41;;;7.15;100.00
80976;BME280;70437;49.466;11.002;2023-11-19T02:45:38;97988.06;;;7.27;100.00
80976;BME280;70437;49.466;11.002;2023-11-19T02:48:08;97976.16;;;7.37;100.00
80976;BME280;70437;49.466;11.002;2023-11-19T02:50:38;97973.09;;;7.40;100.00
80976;BME280;70437;49.466;11.002;2023-11-19T02:53:10;97973.50;;;7.30;100.00
80976;BME280;70437;49.466;11.002;2023-11-19T02:55:40;97962.66;;;7.18;100.00
80976;BME280;70437;49.466;11.002;2023-11-19T02:58:19;97960.81;;;7.25;100.00
80976;BME280;70437;49.466;11.002;2023-11-19T03:00:51;97953.03;;;7.24;100.00
80976;BME280;70437;49.466;11.002;2023-11-19T03:03:26;97941.75;;;7.22;100.00
80976;BME280;70437;49.466;11.002;2023-11-19T03:06:00;97960.38;;;7.35;100.00
80976;BME280;70437;49.466;11.002;2023-11-19T03:08:32;97958.97;;;7.32;100.00
80976;BME280;70437;49.466;11.002;2023-11-19T03:11:02;97952.59;;;7.33;100.00
80976;BME280;70437;49.466;11.002;2023-11-19T03:13:37;97954.25;;;7.28;100.00
80976;BME280;70437;49.466;11.002;2023-11-19T03:16:09;97949.34;;;7.25;100.00
80976;BME280;70437;49.466;11.002;2023-11-19T03:18:42;97939.28;;;7.27;100.00
80976;BME280;70437;49.466;11.002;2023-11-19T03:21:15;97942.75;;;7.27;100.00
80976;BME280;70437;49.466;11.002;2023-11-19T03:23:48;97926.38;;;7.17;100.00
80976;BME280;70437;49.466;11.002;2023-11-19T03:26:17;97929.84;;;7.18;100.00
80976;BME280;70437;49.466;11.002;2023-11-19T03:28:49;97924.94;;;7.28;100.00
80976;BME280;70437;49.466;11.002;2023-11-19T03:31:18;97926.16;;;7.25;100.00
80976;BME280;70437;49.466;11.002;2023-11-19T03:33:48;97922.69;;;7.25;100.00
80976;BME280;70437;49.466;11.002;2023-11-19T03:36:19;97895.63;;;7.21;100.00
80976;BME280;70437;49.466;11.002;2023-11-19T03:38:48;97886.41;;;7.17;100.00
80976;BME280;70437;49.466;11.002;2023-11-19T03:41:18;97865.72;;;7.19;100.00
80976;BME280;70437;49.466;11.002;2023-11-19T03:43:50;97856.06;;;7.18;100.00
80976;BME280;70437;49.466;11.002;2023-11-19T03:46:21;97837.63;;;7.17;100.00
80976;BME280;70437;49.466;11.002;2023-11-19T03:48:51;97801.38;;;7.09;100.00
80976;BME280;70437;49.466;11.002;2023-11-19T03:51:20;97789.72;;;7.10;100.00
80976;BME280;70437;49.466;11.002;2023-11-19T03:53:49;97790.09;;;7.14;100.00
80976;BME280;70437;49.466;11.002;2023-11-19T03:56:18;97803.59;;;7.19;100.00
80976;BME280;70437;49.466;11.002;2023-11-19T03:58:50;97817.31;;;7.29;100.00
80976;BME280;70437;49.466;11.002;2023-11-19T04:01:20;97816.28;;;7.30;100.00
80976;BME280;70437;49.466;11.002;2023-11-19T04:03:52;97827.13;;;7.42;100.00
80976;BME280;70437;49.466;11.002;2023-11-19T04:06:24;97830.38;;;7.50;100.00
80976;BME280;70437;49.466;11.002;2023-11-19T04:08:55;97831.16;;;7.57;100.00
80976;BME280;70437;49.466;11.002;2023-11-19T04:11:25;97834.84;;;7.50;100.00
80976;BME280;70437;49.466;11.002;2023-11-19T04:14:01;97844.06;;;7.54;100.00
80976;BME280;70437;49.466;11.002;2023-11-19T04:16:31;97850.66;;;7.51;100.00
80976;BME280;70437;49.466;11.002;2023-11-19T04:19:02;97863.13;;;7.64;100.00
80976;BME280;70437;49.466;11.002;2023-11-19T04:21:34;97851.19;;;7.67;100.00
80976;BME280;70437;49.466;11.002;2023-11-19T04:24:04;97855.50;;;7.74;100.00
80976;BME280;70437;49.466;11.002;2023-11-19T04:26:35;97854.28;;;7.70;100.00
80976;BME280;70437;49.466;11.002;2023-11-19T04:29:06;97857.97;;;7.69;100.00
80976;BME280;70437;49.466;11.002;2023-11-19T04:31:39;97848.34;;;7.68;100.00
80976;BME280;70437;49.466;11.002;2023-11-19T04:34:08;97857.94;;;7.76;100.00
80976;BME280;70437;49.466;11.002;2023-11-19T04:36:37;97849.53;;;7.72;100.00
80976;BME280;70437;49.466;11.002;2023-11-19T04:39:07;97855.88;;;7.78;100.00
80976;BME280;70437;49.466;11.002;2023-11-19T04:41:48;97855.84;;;7.84;100.00
80976;BME280;70437;49.466;11.002;2023-11-19T04:44:19;97859.72;;;7.89;100.00
80976;BME280;70437;49.466;11.002;2023-11-19T04:46:52;97861.34;;;7.96;100.00
80976;BME280;70437;49.466;11.002;2023-11-19T04:49:22;97855.44;;;7.88;100.00
80976;BME280;70437;49.466;11.002;2023-11-19T04:51:51;97853.56;;;7.88;100.00
80976;BME280;70437;49.466;11.002;2023-11-19T04:54:22;97850.91;;;7.88;100.00
80976;BME280;70437;49.466;11.002;2023-11-19T04:56:53;97850.09;;;7.88;100.00
80976;BME280;70437;49.466;11.002;2023-11-19T04:59:24;97854.16;;;7.97;100.00
80976;BME280;70437;49.466;11.002;2023-11-19T05:01:53;97849.69;;;7.91;100.00
80976;BME280;70437;49.466;11.002;2023-11-19T05:04:24;97845.34;;;7.90;100.00
80976;BME280;70437;49.466;11.002;2023-11-19T05:06:55;97852.47;;;8.02;100.00
80976;BME280;70437;49.466;11.002;2023-11-19T05:09:26;97849.38;;;8.05;100.00
80976;BME280;70437;49.466;11.002;2023-11-19T05:11:56;97852.03;;;8.05;100.00
80976;BME280;70437;49.466;11.002;2023-11-19T05:14:27;97845.84;;;8.11;100.00
80976;BME280;70437;49.466;11.002;2023-11-19T05:16:56;97845.19;;;8.16;100.00
80976;BME280;70437;49.466;11.002;2023-11-19T05:19:26;97845.84;;;8.11;100.00
80976;BME280;70437;49.466;11.002;2023-11-19T05:21:56;97837.25;;;8.09;100.00
80976;BME280;70437;49.466;11.002;2023-11-19T05:24:28;97837.41;;;8.15;100.00
80976;BME280;70437;49.466;11.002;2023-11-19T05:26:58;97834.53;;;8.16;100.00
80976;BME280;70437;49.466;11.002;2023-11-19T05:29:29;97828.38;;;8.16;100.00
80976;BME280;70437;49.466;11.002;2023-11-19T05:31:59;97826.56;;;8.09;100.00
80976;BME280;70437;49.466;11.002;2023-11-19T05:34:29;97826.97;;;8.13;100.00
80976;BME280;70437;49.466;11.002;2023-11-19T05:36:58;97830.22;;;8.15;100.00
80976;BME280;70437;49.466;11.002;2023-11-19T05:39:27;97813.19;;;8.16;100.00
80976;BME280;70437;49.466;11.002;2023-11-19T05:41:57;97806.59;;;8.19;100.00
80976;BME280;70437;49.466;11.002;2023-11-19T05:44:29;97816.00;;;8.21;100.00
80976;BME280;70437;49.466;11.002;2023-11-19T05:46:59;97824.22;;;8.26;100.00
80976;BME280;70437;49.466;11.002;2023-11-19T05:49:29;97810.22;;;8.31;100.00
80976;BME280;70437;49.466;11.002;2023-11-19T05:51:59;97803.22;;;8.37;100.00
80976;BME280;70437;49.466;11.002;2023-11-19T05:54:30;97806.38;;;8.52;100.00
80976;BME280;70437;49.466;11.002;2023-11-19T05:57:05;97802.84;;;8.58;100.00
80976;BME280;70437;49.466;11.002;2023-11-19T05:59:38;97798.69;;;8.62;100.00
80976;BME280;70437;49.466;11.002;2023-11-19T06:02:10;97802.19;;;8.63;100.00
80976;BME280;70437;49.466;11.002;2023-11-19T06:04:39;97798.41;;;8.70;100.00
80976;BME280;70437;49.466;11.002;2023-11-19T06:07:15;97807.03;;;8.72;100.00
80976;BME280;70437;49.466;11.002;2023-11-19T06:09:45;97807.03;;;8.72;100.00
80976;BME280;70437;49.466;11.002;2023-11-19T06:12:15;97816.81;;;8.78;100.00
80976;BME280;70437;49.466;11.002;2023-11-19T06:14:49;97811.06;;;8.81;100.00
80976;BME280;70437;49.466;11.002;2023-11-19T06:17:18;97810.97;;;8.88;100.00
80976;BME280;70437;49.466;11.002;2023-11-19T06:19:47;97811.75;;;8.95;100.00
80976;BME280;70437;49.466;11.002;2023-11-19T06:22:18;97812.97;;;8.93;100.00
80976;BME280;70437;49.466;11.002;2023-11-19T06:24:48;97806.00;;;8.92;100.00
80976;BME280;70437;49.466;11.002;2023-11-19T06:27:18;97812.53;;;8.96;100.00
80976;BME280;70437;49.466;11.002;2023-11-19T06:29:51;97815.22;;;8.96;100.00
80976;BME280;70437;49.466;11.002;2023-11-19T06:32:20;97817.63;;;9.04;100.00
80976;BME280;70437;49.466;11.002;2023-11-19T06:34:52;97821.09;;;9.04;100.00
80976;BME280;70437;49.466;11.002;2023-11-19T06:37:22;97804.03;;;9.05;100.00
80976;BME280;70437;49.466;11.002;2023-11-19T06:39:52;97810.56;;;9.09;100.00
80976;BME280;70437;49.466;11.002;2023-11-19T06:42:23;97802.53;;;9.09;100.00
80976;BME280;70437;49.466;11.002;2023-11-19T06:44:54;97806.25;;;9.08;100.00
80976;BME280;70437;49.466;11.002;2023-11-19T06:47:25;97805.44;;;9.08;100.00
80976;BME280;70437;49.466;11.002;2023-11-19T06:49:55;97802.78;;;9.08;100.00
80976;BME280;70437;49.466;11.002;2023-11-19T06:52:27;97808.22;;;9.20;100.00
80976;BME280;70437;49.466;11.002;2023-11-19T06:54:56;97800.09;;;9.26;100.00
80976;BME280;70437;49.466;11.002;2023-11-19T06:57:28;97800.47;;;9.30;100.00
80976;BME280;70437;49.466;11.002;2023-11-19T07:00:01;97805.88;;;9.42;100.00
80976;BME280;70437;49.466;11.002;2023-11-19T07:02:32;97813.16;;;9.53;100.00
80976;BME280;70437;49.466;11.002;2023-11-19T07:05:02;97810.91;;;9.68;100.00
80976;BME280;70437;49.466;11.002;2023-11-19T07:07:33;97806.72;;;9.72;100.00
80976;BME280;70437;49.466;11.002;2023-11-19T07:10:06;97814.69;;;9.79;100.00
80976;BME280;70437;49.466;11.002;2023-11-19T07:12:37;97810.66;;;9.88;100.00
80976;BME280;70437;49.466;11.002;2023-11-19T07:15:18;97803.69;;;9.99;100.00
80976;BME280;70437;49.466;11.002;2023-11-19T07:17:47;97808.72;;;10.07;100.00
80976;BME280;70437;49.466;11.002;2023-11-19T07:20:30;97809.00;;;10.17;100.00
80976;BME280;70437;49.466;11.002;2023-11-19T07:23:04;97802.75;;;10.23;100.00
80976;BME280;70437;49.466;11.002;2023-11-19T07:25:33;97811.03;;;10.33;100.00
80976;BME280;70437;49.466;11.002;2023-11-19T07:28:03;97818.41;;;10.38;100.00
80976;BME280;70437;49.466;11.002;2023-11-19T07:30:34;97822.00;;;10.44;100.00
80976;BME280;70437;49.466;11.002;2023-11-19T07:33:03;97822.50;;;10.52;100.00
80976;BME280;70437;49.466;11.002;2023-11-19T07:35:32;97833.00;;;10.54;100.00
80976;BME280;70437;49.466;11.002;2023-11-19T07:38:01;97829.50;;;10.65;100.00
80976;BME280;70437;49.466;11.002;2023-11-19T07:40:30;97833.22;;;10.64;100.00
80976;BME280;70437;49.466;11.002;2023-11-19T07:42:59;97826.59;;;10.78;100.00
80976;BME280;70437;49.466;11.002;2023-11-19T07:45:28;97819.84;;;10.87;100.00
80976;BME280;70437;49.466;11.002;2023-11-19T07:47:59;97825.31;;;10.93;100.00
80976;BME280;70437;49.466;11.002;2023-11-19T07:50:30;97834.75;;;10.83;100.00
80976;BME280;70437;49.466;11.002;2023-11-19T07:52:59;97826.25;;;10.98;100.00
80976;BME280;70437;49.466;11.002;2023-11-19T07:55:30;97824.25;;;10.94;100.00
80976;BME280;70437;49.466;11.002;2023-11-19T07:58:02;97829.88;;;11.04;100.00
80976;BME280;70437;49.466;11.002;2023-11-19T08:00:34;97826.94;;;10.94;100.00
80976;BME280;70437;49.466;11.002;2023-11-19T08:03:07;97826.38;;;11.03;100.00
80976;BME280;70437;49.466;11.002;2023-11-19T08:05:37;97824.16;;;11.00;100.00
80976;BME280;70437;49.466;11.002;2023-11-19T08:08:08;97827.31;;;11.09;100.00
80976;BME280;70437;49.466;11.002;2023-11-19T08:10:41;97829.97;;;11.09;100.00
80976;BME280;70437;49.466;11.002;2023-11-19T08:13:11;97835.91;;;11.23;100.00
80976;BME280;70437;49.466;11.002;2023-11-19T08:15:40;97836.63;;;11.18;100.00
80976;BME280;70437;49.466;11.002;2023-11-19T08:18:12;97826.16;;;11.17;100.00
80976;BME280;70437;49.466;11.002;2023-11-19T08:20:48;97830.44;;;11.18;100.00
80976;BME280;70437;49.466;11.002;2023-11-19T08:23:21;97830.56;;;11.23;100.00
80976;BME280;70437;49.466;11.002;2023-11-19T08:25:54;97823.44;;;11.28;100.00
80976;BME280;70437;49.466;11.002;2023-11-19T08:28:24;97830.56;;;11.34;100.00
80976;BME280;70437;49.466;11.002;2023-11-19T08:30:55;97816.53;;;11.44;100.00
80976;BME280;70437;49.466;11.002;2023-11-19T08:33:26;97813.81;;;11.56;100.00
80976;BME280;70437;49.466;11.002;2023-11-19T08:35:56;97815.91;;;11.54;100.00
80976;BME280;70437;49.466;11.002;2023-11-19T08:38:28;97816.97;;;11.53;100.00
80976;BME280;70437;49.466;11.002;2023-11-19T08:40:59;97820.91;;;11.62;100.00
80976;BME280;70437;49.466;11.002;2023-11-19T08:43:29;97813.78;;;11.68;100.00
80976;BME280;70437;49.466;11.002;2023-11-19T08:46:01;97820.41;;;11.77;100.00
80976;BME280;70437;49.466;11.002;2023-11-19T08:48:35;97827.06;;;11.74;100.00
80976;BME280;70437;49.466;11.002;2023-11-19T08:51:05;97811.75;;;11.86;100.00
80976;BME280;70437;49.466;11.002;2023-11-19T08:53:37;97814.66;;;11.97;100.00
80976;BME280;70437;49.466;11.002;2023-11-19T08:56:09;97821.16;;;12.01;100.00
80976;BME280;70437;49.466;11.002;2023-11-19T08:58:39;97810.13;;;12.14;100.00
80976;BME280;70437;49.466;11.002;2023-11-19T09:01:14;97821.28;;;12.23;100.00
80976;BME280;70437;49.466;11.002;2023-11-19T09:03:51;97809.34;;;12.47;100.00
80976;BME280;70437;49.466;11.002;2023-11-19T09:06:22;97805.47;;;13.10;100.00
80976;BME280;70437;49.466;11.002;2023-11-19T09:08:54;97807.81;;;13.62;100.00
80976;BME280;70437;49.466;11.002;2023-11-19T09:11:28;97807.22;;;13.82;100.00
80976;BME280;70437;49.466;11.002;2023-11-19T09:13:58;97811.88;;;13.43;100.00
80976;BME280;70437;49.466;11.002;2023-11-19T09:16:30;97813.28;;;13.12;100.00
80976;BME280;70437;49.466;11.002;2023-11-19T09:19:01;97828.41;;;13.74;100.00
80976;BME280;70437;49.466;11.002;2023-11-19T09:21:34;97833.94;;;14.11;100.00
80976;BME280;70437;49.466;11.002;2023-11-19T09:24:07;97827.53;;;14.44;100.00
80976;BME280;70437;49.466;11.002;2023-11-19T09:26:38;97832.31;;;14.64;100.00
80976;BME280;70437;49.466;11.002;2023-11-19T09:29:12;97834.53;;;14.72;100.00
80976;BME280;70437;49.466;11.002;2023-11-19T09:31:43;97853.63;;;13.68;100.00
80976;BME280;70437;49.466;11.002;2023-11-19T09:34:19;97846.19;;;13.53;100.00
80976;BME280;70437;49.466;11.002;2023-11-19T09:36:51;97845.41;;;13.19;100.00
80976;BME280;70437;49.466;11.002;2023-11-19T09:39:22;97848.19;;;13.62;100.00
80976;BME280;70437;49.466;11.002;2023-11-19T09:41:53;97860.94;;;13.50;100.00
80976;BME280;70437;49.466;11.002;2023-11-19T09:44:26;97863.44;;;13.35;100.00
80976;BME280;70437;49.466;11.002;2023-11-19T09:46:58;97858.25;;;13.50;100.00
80976;BME280;70437;49.466;11.002;2023-11-19T09:49:35;97855.13;;;13.58;100.00
80976;BME280;70437;49.466;11.002;2023-11-19T09:52:06;97860.38;;;13.48;100.00
80976;BME280;70437;49.466;11.002;2023-11-19T09:54:36;97853.00;;;13.22;100.00
80976;BME280;70437;49.466;11.002;2023-11-19T09:57:06;97852.81;;;13.11;100.00
80976;BME280;70437;49.466;11.002;2023-11-19T09:59:39;97846.38;;;13.29;100.00
80976;BME280;70437;49.466;11.002;2023-11-19T10:02:14;97844.44;;;13.25;100.00
80976;BME280;70437;49.466;11.002;2023-11-19T10:04:52;97848.53;;;13.27;100.00
80976;BME280;70437;49.466;11.002;2023-11-19T10:07:22;97847.84;;;13.37;100.00
80976;BME280;70437;49.466;11.002;2023-11-19T10:09:55;97840.84;;;13.36;100.00
80976;BME280;70437;49.466;11.002;2023-11-19T10:12:26;97834.94;;;13.39;100.00
80976;BME280;70437;49.466;11.002;2023-11-19T10:14:57;97837.75;;;13.27;100.00
80976;BME280;70437;49.466;11.002;2023-11-19T10:17:32;97830.22;;;13.46;100.00
80976;BME280;70437;49.466;11.002;2023-11-19T10:20:07;97823.63;;;13.37;100.00
80976;BME280;70437;49.466;11.002;2023-11-19T10:22:38;97824.50;;;13.43;100.00
80976;BME280;70437;49.466;11.002;2023-11-19T10:25:21;97825.03;;;13.39;100.00
80976;BME280;70437;49.466;11.002;2023-11-19T10:27:51;97827.41;;;13.36;100.00
80976;BME280;70437;49.466;11.002;2023-11-19T10:30:23;97818.50;;;13.19;100.00
80976;BME280;70437;49.466;11.002;2023-11-19T10:33:04;97830.88;;;13.20;100.00
80976;BME280;70437;49.466;11.002;2023-11-19T10:35:55;97825.06;;;13.06;100.00
80976;BME280;70437;49.466;11.002;2023-11-19T10:38:31;97814.09;;;12.90;100.00
80976;BME280;70437;49.466;11.002;2023-11-19T10:41:01;97821.81;;;13.04;100.00
80976;BME280;70437;49.466;11.002;2023-11-19T10:43:30;97831.69;;;12.81;100.00
80976;BME280;70437;49.466;11.002;2023-11-19T10:46:09;97824.25;;;13.05;100.00
80976;BME280;70437;49.466;11.002;2023-11-19T10:48:41;97831.66;;;13.98;100.00
80976;BME280;70437;49.466;11.002;2023-11-19T10:51:19;97816.53;;;14.51;100.00
80976;BME280;70437;49.466;11.002;2023-11-19T10:53:49;97814.31;;;15.12;100.00
80976;BME280;70437;49.466;11.002;2023-11-19T10:56:21;97813.84;;;15.25;100.00
80976;BME280;70437;49.466;11.002;2023-11-19T10:58:55;97813.53;;;15.16;100.00
80976;BME280;70437;49.466;11.002;2023-11-19T11:01:33;97815.81;;;15.40;100.00
80976;BME280;70437;49.466;11.002;2023-11-19T11:04:11;97806.41;;;15.48;100.00
80976;BME280;70437;49.466;11.002;2023-11-19T11:06:46;97799.41;;;15.04;100.00
80976;BME280;70437;49.466;11.002;2023-11-19T11:09:17;97817.97;;;14.58;100.00
80976;BME280;70437;49.466;11.002;2023-11-19T11:11:49;97807.34;;;14.47;100.00
80976;BME280;70437;49.466;11.002;2023-11-19T11:14:20;97807.50;;;14.08;100.00
80976;BME280;70437;49.466;11.002;2023-11-19T11:16:53;97803.44;;;14.05;100.00
80976;BME280;70437;49.466;11.002;2023-11-19T11:19:24;97810.81;;;14.42;100.00
80976;BME280;70437;49.466;11.002;2023-11-19T11:21:57;97796.09;;;14.87;100.00
80976;BME280;70437;49.466;11.002;2023-11-19T11:24:45;97778.03;;;14.87;100.00
80976;BME280;70437;49.466;11.002;2023-11-19T11:27:38;97787.50;;;15.48;100.00
80976;BME280;70437;49.466;11.002;2023-11-19T11:30:23;97774.88;;;15.01;100.00
80976;BME280;70437;49.466;11.002;2023-11-19T11:33:18;97778.75;;;14.46;100.00
80976;BME280;70437;49.466;11.002;2023-11-19T11:35:55;97775.97;;;14.68;100.00
80976;BME280;70437;49.466;11.002;2023-11-19T11:38:36;97773.38;;;14.78;100.00
80976;BME280;70437;49.466;11.002;2023-11-19T11:41:20;97767.81;;;15.47;100.00
80976;BME280;70437;49.466;11.002;2023-11-19T11:43:56;97786.34;;;15.28;100.00
80976;BME280;70437;49.466;11.002;2023-11-19T11:46:57;97763.88;;;15.12;100.00
80976;BME280;70437;49.466;11.002;2023-11-19T11:49:31;97772.41;;;14.99;100.00
80976;BME280;70437;49.466;11.002;2023-11-19T11:52:03;97764.28;;;14.94;100.00
80976;BME280;70437;49.466;11.002;2023-11-19T11:54:35;97780.06;;;14.70;100.00
80976;BME280;70437;49.466;11.002;2023-11-19T11:57:09;97767.09;;;14.67;100.00
80976;BME280;70437;49.466;11.002;2023-11-19T12:00:02;97768.75;;;14.73;100.00
80976;BME280;70437;49.466;11.002;2023-11-19T12:02:35;97770.22;;;14.54;100.00
80976;BME280;70437;49.466;11.002;2023-11-19T12:05:09;97761.53;;;14.47;100.00
80976;BME280;70437;49.466;11.002;2023-11-19T12:07:39;97764.63;;;14.60;100.00
80976;BME280;70437;49.466;11.002;2023-11-19T12:10:11;97763.47;;;14.51;100.00
80976;BME280;70437;49.466;11.002;2023-11-19T12:12:42;97749.50;;;14.27;100.00
80976;BME280;70437;49.466;11.002;2023-11-19T12:15:12;97757.25;;;14.51;100.00
80976;BME280;70437;49.466;11.002;2023-11-19T12:17:46;97747.94;;;14.36;100.00
80976;BME280;70437;49.466;11.002;2023-11-19T12:20:19;97752.50;;;14.31;100.00
80976;BME280;70437;49.466;11.002;2023-11-19T12:22:56;97750.13;;;14.72;100.00
80976;BME280;70437;49.466;11.002;2023-11-19T12:25:34;97744.41;;;14.63;100.00
80976;BME280;70437;49.466;11.002;2023-11-19T12:28:12;97730.06;;;15.00;100.00
80976;BME280;70437;49.466;11.002;2023-11-19T12:30:45;97739.84;;;15.06;100.00
80976;BME280;70437;49.466;11.002;2023-11-19T12:33:16;97746.88;;;15.12;100.00
80976;BME280;70437;49.466;11.002;2023-11-19T12:35:48;97736.56;;;15.04;100.00
80976;BME280;70437;49.466;11.002;2023-11-19T12:38:22;97729.97;;;15.32;100.00
80976;BME280;70437;49.466;11.002;2023-11-19T12:41:08;97738.25;;;15.15;100.00
80976;BME280;70437;49.466;11.002;2023-11-19T12:43:41;97732.84;;;15.10;100.00
80976;BME280;70437;49.466;11.002;2023-11-19T12:46:20;97733.59;;;15.00;100.00
80976;BME280;70437;49.466;11.002;2023-11-19T12:48:52;97745.19;;;15.01;100.00
80976;BME280;70437;49.466;11.002;2023-11-19T12:51:21;97744.28;;;14.85;100.00
80976;BME280;70437;49.466;11.002;2023-11-19T12:53:51;97734.84;;;14.82;100.00
80976;BME280;70437;49.466;11.002;2023-11-19T12:56:24;97737.31;;;14.89;100.00
80976;BME280;70437;49.466;11.002;2023-11-19T12:58:54;97736.06;;;15.07;100.00
80976;BME280;70437;49.466;11.002;2023-11-19T13:01:25;97739.50;;;14.97;100.00
80976;BME280;70437;49.466;11.002;2023-11-19T13:03:56;97734.13;;;14.97;100.00
80976;BME280;70437;49.466;11.002;2023-11-19T13:06:24;97720.34;;;14.99;100.00
80976;BME280;70437;49.466;11.002;2023-11-19T13:08:54;97724.97;;;15.03;100.00
80976;BME280;70437;49.466;11.002;2023-11-19T13:11:33;97727.91;;;14.97;100.00